Airfield :







YOU CAN JOIN US ON...

 
LOGIN :

Register | Disclaimer

   EN    FR    IT 

 









Legend :    VFR   Marginal VFR   IFR   Intensive IFR   Very Intensive IFR
Visi :
Ceiling :
>= 8 km
>= 3000ft
5 to 8 km
1000 to 3000 ft
1500m to 5 km
500 to 1000 ft
800 to 1500m
200 to 500 ft
< 800m
< 200 ft
Symbols :   Thunderstorms  Fog  Heavy snow  Heavy precipitations  Wind > 20 kt







- Airport Elevation : 83 ft


KBHB - Hancock County-Bar Harbor

CURRENT METAR :
  • 150728Z AUTO 21005KT 6SM BR OVC004 16/16 A3007 RMK AO2

EXPIRED METARs :
  • 150656Z AUTO 21006KT 7SM OVC006 16/15 A3007 RMK AO2 SLP185 T01560150
  • 150556Z AUTO 20010KT 7SM OVC006 16/15 A3009 RMK AO2 SLP189 60000 T01560150 10161 20156 58014
  • 150456Z AUTO 21006KT 10SM OVC006 16/16 A3010 RMK AO2 SLP195 T01610156

TAF KBHB
Valid from the 15 at 06:00 until the 16 at 06:00 UTC


150549Z 1506/1606 21006KT P6SM OVC007
FM150800 22006KT 4SM BR BKN005
FM151200 24008KT P6SM SCT080
FM151600 27008KT P6SM SCT100
FM160500 30004KT P6SM SCT080
No reported NOTAMs for that airfield.



MET'MAP, your aeronautical weather chart ! - Copyright ORBIFLY December 2007 - Disclaimer

ORBIFLY MET'MAP TEAM :

Programming & Development : Alexandra Zaïnal
Concept & Development : Baudouin d'Aumeries
Co-Development & Prog : Marc-Olivier Méhu
Technical & hardware support : Manuel Goepfert

Contact : metmap@orbifly.com




SOURCES & CREDITS :

   NOAA